sensor_id;sensor_type;location;lat;lon;timestamp;P1;durP1;ratioP1;P2;durP2;ratioP2
71975;SDS011;68326;52.124;5.424;2023-11-22T00:02:02;9.30;;;4.10;;
71975;SDS011;68326;52.124;5.424;2023-11-22T00:04:29;11.30;;;4.27;;
71975;SDS011;68326;52.124;5.424;2023-11-22T00:06:55;10.57;;;4.38;;
71975;SDS011;68326;52.124;5.424;2023-11-22T00:09:22;9.88;;;4.70;;
71975;SDS011;68326;52.124;5.424;2023-11-22T00:11:49;9.52;;;3.67;;
71975;SDS011;68326;52.124;5.424;2023-11-22T00:14:18;7.13;;;3.72;;
71975;SDS011;68326;52.124;5.424;2023-11-22T00:16:45;8.57;;;4.00;;
71975;SDS011;68326;52.124;5.424;2023-11-22T00:19:12;7.80;;;3.58;;
71975;SDS011;68326;52.124;5.424;2023-11-22T00:21:38;7.93;;;3.85;;
71975;SDS011;68326;52.124;5.424;2023-11-22T00:24:05;10.05;;;4.80;;
71975;SDS011;68326;52.124;5.424;2023-11-22T00:26:32;7.32;;;3.83;;
71975;SDS011;68326;52.124;5.424;2023-11-22T00:28:58;9.50;;;4.10;;
71975;SDS011;68326;52.124;5.424;2023-11-22T00:31:25;7.63;;;3.92;;
71975;SDS011;68326;52.124;5.424;2023-11-22T00:33:52;10.82;;;4.85;;
71975;SDS011;68326;52.124;5.424;2023-11-22T00:36:18;10.23;;;4.95;;
71975;SDS011;68326;52.124;5.424;2023-11-22T00:38:46;9.30;;;4.18;;
71975;SDS011;68326;52.124;5.424;2023-11-22T00:41:12;8.73;;;4.00;;
71975;SDS011;68326;52.124;5.424;2023-11-22T00:43:40;10.43;;;4.65;;
71975;SDS011;68326;52.124;5.424;2023-11-22T00:46:07;7.95;;;4.10;;
71975;SDS011;68326;52.124;5.424;2023-11-22T00:48:33;9.80;;;4.35;;
71975;SDS011;68326;52.124;5.424;2023-11-22T00:51:00;9.25;;;4.28;;
71975;SDS011;68326;52.124;5.424;2023-11-22T00:53:26;8.07;;;4.20;;
71975;SDS011;68326;52.124;5.424;2023-11-22T00:55:53;9.65;;;4.07;;
71975;SDS011;68326;52.124;5.424;2023-11-22T00:58:19;6.85;;;3.67;;
71975;SDS011;68326;52.124;5.424;2023-11-22T01:00:46;8.55;;;4.32;;
71975;SDS011;68326;52.124;5.424;2023-11-22T01:03:12;8.95;;;3.85;;
71975;SDS011;68326;52.124;5.424;2023-11-22T01:05:39;8.07;;;3.60;;
71975;SDS011;68326;52.124;5.424;2023-11-22T01:08:06;8.52;;;4.25;;
71975;SDS011;68326;52.124;5.424;2023-11-22T01:10:32;8.80;;;4.30;;
71975;SDS011;68326;52.124;5.424;2023-11-22T01:12:59;10.00;;;3.78;;
71975;SDS011;68326;52.124;5.424;2023-11-22T01:15:25;7.03;;;4.03;;
71975;SDS011;68326;52.124;5.424;2023-11-22T01:17:52;7.83;;;4.17;;
71975;SDS011;68326;52.124;5.424;2023-11-22T01:20:19;8.65;;;4.18;;
71975;SDS011;68326;52.124;5.424;2023-11-22T01:22:49;9.27;;;4.43;;
71975;SDS011;68326;52.124;5.424;2023-11-22T01:25:15;7.55;;;3.55;;
71975;SDS011;68326;52.124;5.424;2023-11-22T01:27:42;8.85;;;3.75;;
71975;SDS011;68326;52.124;5.424;2023-11-22T01:30:08;7.83;;;4.30;;
71975;SDS011;68326;52.124;5.424;2023-11-22T01:32:35;12.38;;;4.50;;
71975;SDS011;68326;52.124;5.424;2023-11-22T01:35:02;10.38;;;4.53;;
71975;SDS011;68326;52.124;5.424;2023-11-22T01:37:31;8.82;;;4.20;;
71975;SDS011;68326;52.124;5.424;2023-11-22T01:39:58;9.20;;;3.92;;
71975;SDS011;68326;52.124;5.424;2023-11-22T01:42:25;7.57;;;3.97;;
71975;SDS011;68326;52.124;5.424;2023-11-22T01:44:51;9.00;;;3.83;;
71975;SDS011;68326;52.124;5.424;2023-11-22T01:47:19;8.45;;;3.95;;
71975;SDS011;68326;52.124;5.424;2023-11-22T01:49:45;9.30;;;4.22;;
71975;SDS011;68326;52.124;5.424;2023-11-22T01:52:13;7.90;;;3.80;;
71975;SDS011;68326;52.124;5.424;2023-11-22T01:54:39;7.73;;;3.60;;
71975;SDS011;68326;52.124;5.424;2023-11-22T01:57:07;12.35;;;3.95;;
71975;SDS011;68326;52.124;5.424;2023-11-22T01:59:35;9.65;;;3.92;;
71975;SDS011;68326;52.124;5.424;2023-11-22T02:02:02;7.18;;;3.22;;
71975;SDS011;68326;52.124;5.424;2023-11-22T02:04:29;7.82;;;4.10;;
71975;SDS011;68326;52.124;5.424;2023-11-22T02:06:56;8.50;;;3.97;;
71975;SDS011;68326;52.124;5.424;2023-11-22T02:09:23;9.52;;;4.30;;
71975;SDS011;68326;52.124;5.424;2023-11-22T02:11:49;9.07;;;4.05;;
71975;SDS011;68326;52.124;5.424;2023-11-22T02:14:16;7.40;;;4.00;;
71975;SDS011;68326;52.124;5.424;2023-11-22T02:16:43;8.38;;;4.15;;
71975;SDS011;68326;52.124;5.424;2023-11-22T02:19:14;10.90;;;4.33;;
71975;SDS011;68326;52.124;5.424;2023-11-22T02:21:41;8.85;;;3.63;;
71975;SDS011;68326;52.124;5.424;2023-11-22T02:24:09;8.10;;;3.97;;
71975;SDS011;68326;52.124;5.424;2023-11-22T02:26:36;11.30;;;3.90;;
71975;SDS011;68326;52.124;5.424;2023-11-22T02:29:02;10.02;;;3.95;;
71975;SDS011;68326;52.124;5.424;2023-11-22T02:31:32;7.23;;;3.43;;
71975;SDS011;68326;52.124;5.424;2023-11-22T02:34:00;7.53;;;3.38;;
71975;SDS011;68326;52.124;5.424;2023-11-22T02:36:26;8.05;;;3.80;;
71975;SDS011;68326;52.124;5.424;2023-11-22T02:38:53;9.30;;;3.92;;
71975;SDS011;68326;52.124;5.424;2023-11-22T02:41:20;8.52;;;3.15;;
71975;SDS011;68326;52.124;5.424;2023-11-22T02:43:47;11.40;;;3.60;;
71975;SDS011;68326;52.124;5.424;2023-11-22T02:46:13;9.27;;;3.47;;
71975;SDS011;68326;52.124;5.424;2023-11-22T02:48:40;9.18;;;3.78;;
71975;SDS011;68326;52.124;5.424;2023-11-22T02:51:06;8.25;;;3.38;;
71975;SDS011;68326;52.124;5.424;2023-11-22T02:53:33;9.77;;;4.07;;
71975;SDS011;68326;52.124;5.424;2023-11-22T02:56:00;7.50;;;3.17;;
71975;SDS011;68326;52.124;5.424;2023-11-22T02:58:28;7.13;;;2.90;;
71975;SDS011;68326;52.124;5.424;2023-11-22T03:00:55;6.18;;;3.13;;
71975;SDS011;68326;52.124;5.424;2023-11-22T03:03:23;8.82;;;3.30;;
71975;SDS011;68326;52.124;5.424;2023-11-22T03:05:53;8.90;;;3.40;;
71975;SDS011;68326;52.124;5.424;2023-11-22T03:08:20;7.13;;;3.30;;
71975;SDS011;68326;52.124;5.424;2023-11-22T03:10:46;7.93;;;3.35;;
71975;SDS011;68326;52.124;5.424;2023-11-22T03:13:13;7.63;;;3.40;;
71975;SDS011;68326;52.124;5.424;2023-11-22T03:15:39;8.18;;;3.60;;
71975;SDS011;68326;52.124;5.424;2023-11-22T03:18:06;6.72;;;3.30;;
71975;SDS011;68326;52.124;5.424;2023-11-22T03:20:33;10.13;;;3.87;;
71975;SDS011;68326;52.124;5.424;2023-11-22T03:22:59;8.32;;;3.72;;
71975;SDS011;68326;52.124;5.424;2023-11-22T03:25:26;8.90;;;3.80;;
71975;SDS011;68326;52.124;5.424;2023-11-22T03:27:53;10.77;;;3.78;;
71975;SDS011;68326;52.124;5.424;2023-11-22T03:30:19;7.90;;;3.92;;
71975;SDS011;68326;52.124;5.424;2023-11-22T03:32:46;8.47;;;3.60;;
71975;SDS011;68326;52.124;5.424;2023-11-22T03:35:13;8.95;;;3.95;;
71975;SDS011;68326;52.124;5.424;2023-11-22T03:37:40;8.88;;;3.65;;
71975;SDS011;68326;52.124;5.424;2023-11-22T03:40:06;7.35;;;3.30;;
71975;SDS011;68326;52.124;5.424;2023-11-22T03:42:35;8.55;;;3.78;;
71975;SDS011;68326;52.124;5.424;2023-11-22T03:45:03;7.00;;;3.33;;
71975;SDS011;68326;52.124;5.424;2023-11-22T03:47:30;7.03;;;3.25;;
71975;SDS011;68326;52.124;5.424;2023-11-22T03:49:59;8.18;;;3.65;;
71975;SDS011;68326;52.124;5.424;2023-11-22T03:52:26;10.38;;;4.18;;
71975;SDS011;68326;52.124;5.424;2023-11-22T03:54:55;9.38;;;3.70;;
71975;SDS011;68326;52.124;5.424;2023-11-22T03:57:23;7.57;;;3.53;;
71975;SDS011;68326;52.124;5.424;2023-11-22T03:59:49;8.27;;;3.67;;
71975;SDS011;68326;52.124;5.424;2023-11-22T04:02:16;7.80;;;3.55;;
71975;SDS011;68326;52.124;5.424;2023-11-22T04:04:42;7.25;;;3.53;;
71975;SDS011;68326;52.124;5.424;2023-11-22T04:07:09;7.43;;;3.22;;
71975;SDS011;68326;52.124;5.424;2023-11-22T04:09:35;10.83;;;3.47;;
71975;SDS011;68326;52.124;5.424;2023-11-22T04:12:02;8.23;;;3.53;;
71975;SDS011;68326;52.124;5.424;2023-11-22T04:14:30;7.20;;;3.25;;
71975;SDS011;68326;52.124;5.424;2023-11-22T04:16:57;8.20;;;3.50;;
71975;SDS011;68326;52.124;5.424;2023-11-22T04:19:24;8.20;;;3.40;;
71975;SDS011;68326;52.124;5.424;2023-11-22T04:21:50;6.93;;;3.37;;
71975;SDS011;68326;52.124;5.424;2023-11-22T04:24:17;6.82;;;3.10;;
71975;SDS011;68326;52.124;5.424;2023-11-22T04:26:44;7.13;;;3.15;;
71975;SDS011;68326;52.124;5.424;2023-11-22T04:29:14;7.53;;;3.15;;
71975;SDS011;68326;52.124;5.424;2023-11-22T04:31:40;5.50;;;2.60;;
71975;SDS011;68326;52.124;5.424;2023-11-22T04:34:07;8.77;;;2.70;;
71975;SDS011;68326;52.124;5.424;2023-11-22T04:36:33;6.10;;;2.72;;
71975;SDS011;68326;52.124;5.424;2023-11-22T04:39:00;7.47;;;2.72;;
71975;SDS011;68326;52.124;5.424;2023-11-22T04:41:26;6.22;;;2.75;;
71975;SDS011;68326;52.124;5.424;2023-11-22T04:43:53;6.22;;;2.78;;
71975;SDS011;68326;52.124;5.424;2023-11-22T04:46:19;6.17;;;2.70;;
71975;SDS011;68326;52.124;5.424;2023-11-22T04:48:46;6.78;;;2.88;;
71975;SDS011;68326;52.124;5.424;2023-11-22T04:51:17;6.80;;;2.85;;
71975;SDS011;68326;52.124;5.424;2023-11-22T04:53:43;6.30;;;2.70;;
71975;SDS011;68326;52.124;5.424;2023-11-22T04:56:10;6.07;;;2.60;;
71975;SDS011;68326;52.124;5.424;2023-11-22T04:58:36;6.40;;;2.80;;
71975;SDS011;68326;52.124;5.424;2023-11-22T05:01:03;8.52;;;2.72;;
71975;SDS011;68326;52.124;5.424;2023-11-22T05:03:30;6.38;;;2.97;;
71975;SDS011;68326;52.124;5.424;2023-11-22T05:05:57;7.28;;;3.10;;
71975;SDS011;68326;52.124;5.424;2023-11-22T05:08:23;7.53;;;2.97;;
71975;SDS011;68326;52.124;5.424;2023-11-22T05:10:51;6.53;;;2.80;;
71975;SDS011;68326;52.124;5.424;2023-11-22T05:13:20;5.82;;;2.67;;
71975;SDS011;68326;52.124;5.424;2023-11-22T05:15:47;4.50;;;2.17;;
71975;SDS011;68326;52.124;5.424;2023-11-22T05:18:13;8.63;;;2.60;;
71975;SDS011;68326;52.124;5.424;2023-11-22T05:20:40;7.55;;;2.70;;
71975;SDS011;68326;52.124;5.424;2023-11-22T05:23:06;6.17;;;2.80;;
71975;SDS011;68326;52.124;5.424;2023-11-22T05:25:33;4.60;;;2.17;;
71975;SDS011;68326;52.124;5.424;2023-11-22T05:27:59;4.45;;;2.17;;
71975;SDS011;68326;52.124;5.424;2023-11-22T05:30:26;4.55;;;2.30;;
71975;SDS011;68326;52.124;5.424;2023-11-22T05:32:52;4.13;;;1.98;;
71975;SDS011;68326;52.124;5.424;2023-11-22T05:35:19;4.27;;;1.73;;
71975;SDS011;68326;52.124;5.424;2023-11-22T05:37:47;4.63;;;1.95;;
71975;SDS011;68326;52.124;5.424;2023-11-22T05:40:14;5.45;;;2.25;;
71975;SDS011;68326;52.124;5.424;2023-11-22T05:42:42;6.68;;;2.55;;
71975;SDS011;68326;52.124;5.424;2023-11-22T05:45:09;6.63;;;2.83;;
71975;SDS011;68326;52.124;5.424;2023-11-22T05:47:36;5.30;;;2.73;;
71975;SDS011;68326;52.124;5.424;2023-11-22T05:50:03;6.63;;;2.78;;
71975;SDS011;68326;52.124;5.424;2023-11-22T05:52:30;6.80;;;2.38;;
71975;SDS011;68326;52.124;5.424;2023-11-22T05:54:56;5.90;;;2.50;;
71975;SDS011;68326;52.124;5.424;2023-11-22T05:57:23;5.82;;;2.30;;
71975;SDS011;68326;52.124;5.424;2023-11-22T05:59:49;6.00;;;2.53;;
71975;SDS011;68326;52.124;5.424;2023-11-22T06:02:16;7.70;;;2.50;;
71975;SDS011;68326;52.124;5.424;2023-11-22T06:04:42;6.03;;;2.88;;
71975;SDS011;68326;52.124;5.424;2023-11-22T06:07:09;6.43;;;2.55;;
71975;SDS011;68326;52.124;5.424;2023-11-22T06:09:36;4.78;;;2.40;;
71975;SDS011;68326;52.124;5.424;2023-11-22T06:12:02;4.27;;;1.90;;
71975;SDS011;68326;52.124;5.424;2023-11-22T06:14:29;4.78;;;2.15;;
71975;SDS011;68326;52.124;5.424;2023-11-22T06:16:56;2.65;;;1.10;;
71975;SDS011;68326;52.124;5.424;2023-11-22T06:19:22;3.67;;;1.63;;
71975;SDS011;68326;52.124;5.424;2023-11-22T06:21:49;4.00;;;1.60;;
71975;SDS011;68326;52.124;5.424;2023-11-22T06:24:15;2.83;;;1.13;;
71975;SDS011;68326;52.124;5.424;2023-11-22T06:26:43;4.65;;;1.60;;
71975;SDS011;68326;52.124;5.424;2023-11-22T06:29:10;3.47;;;1.50;;
71975;SDS011;68326;52.124;5.424;2023-11-22T06:31:37;4.45;;;1.80;;
71975;SDS011;68326;52.124;5.424;2023-11-22T06:34:03;5.18;;;2.20;;
71975;SDS011;68326;52.124;5.424;2023-11-22T06:36:30;6.43;;;2.37;;
71975;SDS011;68326;52.124;5.424;2023-11-22T06:38:56;5.28;;;2.40;;
71975;SDS011;68326;52.124;5.424;2023-11-22T06:41:23;6.55;;;2.40;;
71975;SDS011;68326;52.124;5.424;2023-11-22T06:43:49;5.28;;;2.00;;
71975;SDS011;68326;52.124;5.424;2023-11-22T06:46:16;4.28;;;1.75;;
71975;SDS011;68326;52.124;5.424;2023-11-22T06:48:43;4.30;;;1.80;;
71975;SDS011;68326;52.124;5.424;2023-11-22T06:51:15;4.28;;;1.67;;
71975;SDS011;68326;52.124;5.424;2023-11-22T06:53:42;4.15;;;1.60;;
71975;SDS011;68326;52.124;5.424;2023-11-22T06:56:08;3.58;;;1.63;;
71975;SDS011;68326;52.124;5.424;2023-11-22T06:58:35;7.15;;;2.55;;
71975;SDS011;68326;52.124;5.424;2023-11-22T07:01:02;4.57;;;2.03;;
71975;SDS011;68326;52.124;5.424;2023-11-22T07:03:28;4.82;;;1.85;;
71975;SDS011;68326;52.124;5.424;2023-11-22T07:05:55;6.20;;;1.60;;
71975;SDS011;68326;52.124;5.424;2023-11-22T07:08:22;4.47;;;1.48;;
71975;SDS011;68326;52.124;5.424;2023-11-22T07:10:48;4.63;;;1.80;;
71975;SDS011;68326;52.124;5.424;2023-11-22T07:13:16;10.77;;;2.70;;
71975;SDS011;68326;52.124;5.424;2023-11-22T07:15:44;6.10;;;2.58;;
71975;SDS011;68326;52.124;5.424;2023-11-22T07:18:11;6.78;;;3.13;;
71975;SDS011;68326;52.124;5.424;2023-11-22T07:20:39;6.43;;;2.55;;
71975;SDS011;68326;52.124;5.424;2023-11-22T07:23:06;7.55;;;2.65;;
71975;SDS011;68326;52.124;5.424;2023-11-22T07:25:33;6.33;;;2.70;;
71975;SDS011;68326;52.124;5.424;2023-11-22T07:28:00;7.00;;;2.63;;
71975;SDS011;68326;52.124;5.424;2023-11-22T07:30:26;4.60;;;1.85;;
71975;SDS011;68326;52.124;5.424;2023-11-22T07:32:56;5.72;;;2.40;;
71975;SDS011;68326;52.124;5.424;2023-11-22T07:35:25;4.72;;;2.00;;
71975;SDS011;68326;52.124;5.424;2023-11-22T07:37:54;8.17;;;2.80;;
71975;SDS011;68326;52.124;5.424;2023-11-22T07:40:21;7.50;;;2.58;;
71975;SDS011;68326;52.124;5.424;2023-11-22T07:42:48;6.70;;;2.92;;
71975;SDS011;68326;52.124;5.424;2023-11-22T07:45:15;6.60;;;2.75;;
71975;SDS011;68326;52.124;5.424;2023-11-22T07:47:43;7.10;;;2.88;;
71975;SDS011;68326;52.124;5.424;2023-11-22T07:50:10;5.67;;;2.60;;
71975;SDS011;68326;52.124;5.424;2023-11-22T07:52:38;6.60;;;3.45;;
71975;SDS011;68326;52.124;5.424;2023-11-22T07:55:06;8.82;;;3.75;;
71975;SDS011;68326;52.124;5.424;2023-11-22T07:57:34;10.02;;;3.90;;
71975;SDS011;68326;52.124;5.424;2023-11-22T08:00:01;7.75;;;3.22;;
71975;SDS011;68326;52.124;5.424;2023-11-22T08:02:30;9.57;;;4.07;;
71975;SDS011;68326;52.124;5.424;2023-11-22T08:04:59;11.05;;;4.07;;
71975;SDS011;68326;52.124;5.424;2023-11-22T08:07:28;8.55;;;3.78;;
71975;SDS011;68326;52.124;5.424;2023-11-22T08:09:54;13.38;;;4.55;;
71975;SDS011;68326;52.124;5.424;2023-11-22T08:12:20;11.05;;;4.55;;
71975;SDS011;68326;52.124;5.424;2023-11-22T08:14:49;10.23;;;4.23;;
71975;SDS011;68326;52.124;5.424;2023-11-22T08:17:15;11.10;;;3.95;;
71975;SDS011;68326;52.124;5.424;2023-11-22T08:19:42;8.93;;;3.75;;
71975;SDS011;68326;52.124;5.424;2023-11-22T08:22:09;10.10;;;3.35;;
71975;SDS011;68326;52.124;5.424;2023-11-22T08:24:35;10.68;;;4.00;;
71975;SDS011;68326;52.124;5.424;2023-11-22T08:27:02;11.00;;;4.43;;
71975;SDS011;68326;52.124;5.424;2023-11-22T08:29:29;10.05;;;4.38;;
71975;SDS011;68326;52.124;5.424;2023-11-22T08:31:56;9.15;;;4.15;;
71975;SDS011;68326;52.124;5.424;2023-11-22T08:34:24;9.55;;;4.07;;
71975;SDS011;68326;52.124;5.424;2023-11-22T08:36:50;7.70;;;3.83;;
71975;SDS011;68326;52.124;5.424;2023-11-22T08:39:18;8.13;;;3.73;;
71975;SDS011;68326;52.124;5.424;2023-11-22T08:41:45;8.65;;;4.03;;
71975;SDS011;68326;52.124;5.424;2023-11-22T08:44:12;10.90;;;4.63;;
71975;SDS011;68326;52.124;5.424;2023-11-22T08:46:38;10.70;;;4.43;;
71975;SDS011;68326;52.124;5.424;2023-11-22T08:49:05;12.63;;;5.32;;
71975;SDS011;68326;52.124;5.424;2023-11-22T08:51:32;11.27;;;4.57;;
71975;SDS011;68326;52.124;5.424;2023-11-22T08:54:00;13.57;;;5.45;;
71975;SDS011;68326;52.124;5.424;2023-11-22T08:56:26;13.57;;;5.03;;
71975;SDS011;68326;52.124;5.424;2023-11-22T08:58:53;12.35;;;5.00;;
71975;SDS011;68326;52.124;5.424;2023-11-22T09:01:20;11.40;;;4.68;;
71975;SDS011;68326;52.124;5.424;2023-11-22T09:03:47;9.77;;;4.00;;
71975;SDS011;68326;52.124;5.424;2023-11-22T09:06:16;9.57;;;4.82;;
71975;SDS011;68326;52.124;5.424;2023-11-22T09:08:43;11.77;;;4.90;;
71975;SDS011;68326;52.124;5.424;2023-11-22T09:11:12;10.95;;;5.20;;
71975;SDS011;68326;52.124;5.424;2023-11-22T09:13:39;16.50;;;5.97;;
71975;SDS011;68326;52.124;5.424;2023-11-22T09:16:06;11.70;;;5.30;;
71975;SDS011;68326;52.124;5.424;2023-11-22T09:18:34;11.73;;;5.47;;
71975;SDS011;68326;52.124;5.424;2023-11-22T09:21:01;13.50;;;5.55;;
71975;SDS011;68326;52.124;5.424;2023-11-22T09:23:27;12.05;;;5.55;;
71975;SDS011;68326;52.124;5.424;2023-11-22T09:25:56;14.95;;;5.60;;
71975;SDS011;68326;52.124;5.424;2023-11-22T09:28:22;13.80;;;5.53;;
71975;SDS011;68326;52.124;5.424;2023-11-22T09:30:49;13.60;;;5.72;;
71975;SDS011;68326;52.124;5.424;2023-11-22T09:33:15;13.60;;;5.90;;
71975;SDS011;68326;52.124;5.424;2023-11-22T09:35:43;13.35;;;5.32;;
71975;SDS011;68326;52.124;5.424;2023-11-22T09:38:12;13.63;;;5.82;;
71975;SDS011;68326;52.124;5.424;2023-11-22T09:43:10;14.15;;;5.63;;
71975;SDS011;68326;52.124;5.424;2023-11-22T09:45:36;13.50;;;6.13;;
71975;SDS011;68326;52.124;5.424;2023-11-22T09:48:07;13.15;;;5.63;;
71975;SDS011;68326;52.124;5.424;2023-11-22T09:56:20;13.80;;;5.35;;
71975;SDS011;68326;52.124;5.424;2023-11-22T09:58:46;16.33;;;5.60;;
71975;SDS011;68326;52.124;5.424;2023-11-22T10:01:17;11.80;;;5.95;;
71975;SDS011;68326;52.124;5.424;2023-11-22T10:03:44;16.73;;;6.15;;
71975;SDS011;68326;52.124;5.424;2023-11-22T10:06:11;16.53;;;6.27;;
71975;SDS011;68326;52.124;5.424;2023-11-22T10:08:38;11.68;;;5.53;;
71975;SDS011;68326;52.124;5.424;2023-11-22T10:11:05;15.68;;;5.88;;
71975;SDS011;68326;52.124;5.424;2023-11-22T10:13:33;14.52;;;5.93;;
71975;SDS011;68326;52.124;5.424;2023-11-22T10:16:12;13.38;;;5.82;;
71975;SDS011;68326;52.124;5.424;2023-11-22T10:18:42;11.70;;;5.40;;
71975;SDS011;68326;52.124;5.424;2023-11-22T10:23:57;12.32;;;5.78;;
71975;SDS011;68326;52.124;5.424;2023-11-22T10:26:31;14.27;;;5.90;;
71975;SDS011;68326;52.124;5.424;2023-11-22T10:28:58;15.32;;;6.78;;
71975;SDS011;68326;52.124;5.424;2023-11-22T10:31:25;18.57;;;6.00;;
71975;SDS011;68326;52.124;5.424;2023-11-22T10:33:52;12.30;;;5.43;;
71975;SDS011;68326;52.124;5.424;2023-11-22T10:36:21;12.88;;;5.60;;
71975;SDS011;68326;52.124;5.424;2023-11-22T10:38:49;12.57;;;5.40;;
71975;SDS011;68326;52.124;5.424;2023-11-22T10:41:19;15.93;;;6.07;;
71975;SDS011;68326;52.124;5.424;2023-11-22T10:43:47;13.13;;;6.33;;
71975;SDS011;68326;52.124;5.424;2023-11-22T10:46:17;13.57;;;5.82;;
71975;SDS011;68326;52.124;5.424;2023-11-22T10:48:45;14.23;;;6.05;;
71975;SDS011;68326;52.124;5.424;2023-11-22T10:51:12;13.27;;;6.03;;
71975;SDS011;68326;52.124;5.424;2023-11-22T10:53:42;14.07;;;6.25;;
71975;SDS011;68326;52.124;5.424;2023-11-22T10:56:21;13.00;;;5.97;;
71975;SDS011;68326;52.124;5.424;2023-11-22T10:58:55;12.88;;;5.53;;
71975;SDS011;68326;52.124;5.424;2023-11-22T11:01:24;14.23;;;5.90;;
71975;SDS011;68326;52.124;5.424;2023-11-22T11:04:01;13.95;;;6.00;;
71975;SDS011;68326;52.124;5.424;2023-11-22T11:06:34;14.65;;;6.05;;
71975;SDS011;68326;52.124;5.424;2023-11-22T11:09:04;12.47;;;5.90;;
71975;SDS011;68326;52.124;5.424;2023-11-22T11:11:32;16.25;;;6.53;;
71975;SDS011;68326;52.124;5.424;2023-11-22T11:14:00;12.60;;;5.68;;
71975;SDS011;68326;52.124;5.424;2023-11-22T11:16:29;13.07;;;4.95;;
71975;SDS011;68326;52.124;5.424;2023-11-22T11:19:00;11.98;;;5.95;;
71975;SDS011;68326;52.124;5.424;2023-11-22T11:21:28;12.40;;;5.60;;
71975;SDS011;68326;52.124;5.424;2023-11-22T11:23:55;13.13;;;6.20;;
71975;SDS011;68326;52.124;5.424;2023-11-22T11:26:28;14.02;;;5.78;;
71975;SDS011;68326;52.124;5.424;2023-11-22T11:28:58;13.30;;;5.20;;
71975;SDS011;68326;52.124;5.424;2023-11-22T11:31:28;12.05;;;5.65;;
71975;SDS011;68326;52.124;5.424;2023-11-22T11:33:57;11.00;;;5.30;;
71975;SDS011;68326;52.124;5.424;2023-11-22T11:36:25;13.13;;;6.05;;
71975;SDS011;68326;52.124;5.424;2023-11-22T11:38:54;13.43;;;6.03;;
71975;SDS011;68326;52.124;5.424;2023-11-22T11:41:25;11.85;;;5.70;;
71975;SDS011;68326;52.124;5.424;2023-11-22T11:43:58;12.60;;;6.10;;
71975;SDS011;68326;52.124;5.424;2023-11-22T11:46:27;12.90;;;5.97;;
71975;SDS011;68326;52.124;5.424;2023-11-22T11:48:55;12.48;;;6.30;;
71975;SDS011;68326;52.124;5.424;2023-11-22T11:51:28;14.27;;;5.50;;
71975;SDS011;68326;52.124;5.424;2023-11-22T11:53:55;12.60;;;6.25;;
71975;SDS011;68326;52.124;5.424;2023-11-22T11:56:22;12.52;;;5.75;;
71975;SDS011;68326;52.124;5.424;2023-11-22T11:58:53;14.97;;;5.60;;
71975;SDS011;68326;52.124;5.424;2023-11-22T12:01:27;10.27;;;5.20;;
71975;SDS011;68326;52.124;5.424;2023-11-22T12:03:55;13.82;;;6.00;;
71975;SDS011;68326;52.124;5.424;2023-11-22T12:06:22;9.77;;;5.68;;
71975;SDS011;68326;52.124;5.424;2023-11-22T12:08:49;11.95;;;5.18;;
71975;SDS011;68326;52.124;5.424;2023-11-22T12:11:15;14.60;;;5.60;;
71975;SDS011;68326;52.124;5.424;2023-11-22T12:13:44;9.38;;;4.53;;
71975;SDS011;68326;52.124;5.424;2023-11-22T12:16:14;11.82;;;5.68;;
71975;SDS011;68326;52.124;5.424;2023-11-22T12:18:45;11.65;;;5.53;;
71975;SDS011;68326;52.124;5.424;2023-11-22T12:21:17;12.00;;;5.00;;
71975;SDS011;68326;52.124;5.424;2023-11-22T12:23:45;9.07;;;3.63;;
71975;SDS011;68326;52.124;5.424;2023-11-22T12:26:15;10.25;;;4.93;;
71975;SDS011;68326;52.124;5.424;2023-11-22T12:28:48;14.73;;;5.35;;
71975;SDS011;68326;52.124;5.424;2023-11-22T12:31:28;12.82;;;5.78;;
71975;SDS011;68326;52.124;5.424;2023-11-22T12:34:01;13.82;;;5.53;;
71975;SDS011;68326;52.124;5.424;2023-11-22T12:36:28;14.97;;;5.90;;
71975;SDS011;68326;52.124;5.424;2023-11-22T12:38:55;13.80;;;5.65;;
71975;SDS011;68326;52.124;5.424;2023-11-22T12:41:26;14.00;;;5.93;;
71975;SDS011;68326;52.124;5.424;2023-11-22T12:44:03;12.63;;;5.93;;
71975;SDS011;68326;52.124;5.424;2023-11-22T12:49:23;16.40;;;7.20;;
71975;SDS011;68326;52.124;5.424;2023-11-22T12:51:50;13.98;;;6.35;;
71975;SDS011;68326;52.124;5.424;2023-11-22T12:54:18;14.00;;;6.57;;
71975;SDS011;68326;52.124;5.424;2023-11-22T12:56:51;13.45;;;6.72;;
71975;SDS011;68326;52.124;5.424;2023-11-22T12:59:25;18.55;;;7.43;;
71975;SDS011;68326;52.124;5.424;2023-11-22T13:01:57;15.50;;;6.80;;
71975;SDS011;68326;52.124;5.424;2023-11-22T13:04:25;15.98;;;7.00;;
71975;SDS011;68326;52.124;5.424;2023-11-22T13:06:52;18.35;;;7.88;;
71975;SDS011;68326;52.124;5.424;2023-11-22T13:09:20;16.13;;;7.28;;
71975;SDS011;68326;52.124;5.424;2023-11-22T13:11:46;16.10;;;6.88;;
71975;SDS011;68326;52.124;5.424;2023-11-22T13:14:13;15.80;;;6.87;;
71975;SDS011;68326;52.124;5.424;2023-11-22T13:16:40;16.35;;;7.40;;
71975;SDS011;68326;52.124;5.424;2023-11-22T13:19:07;15.40;;;6.55;;
71975;SDS011;68326;52.124;5.424;2023-11-22T13:21:35;13.63;;;6.90;;
71975;SDS011;68326;52.124;5.424;2023-11-22T13:24:02;17.70;;;7.10;;
71975;SDS011;68326;52.124;5.424;2023-11-22T13:26:30;15.60;;;6.43;;
71975;SDS011;68326;52.124;5.424;2023-11-22T13:28:57;17.45;;;7.43;;
71975;SDS011;68326;52.124;5.424;2023-11-22T13:31:25;13.52;;;6.13;;
71975;SDS011;68326;52.124;5.424;2023-11-22T13:33:51;15.45;;;6.10;;
71975;SDS011;68326;52.124;5.424;2023-11-22T13:36:18;16.38;;;6.40;;
71975;SDS011;68326;52.124;5.424;2023-11-22T13:38:44;15.97;;;6.93;;
71975;SDS011;68326;52.124;5.424;2023-11-22T13:41:11;14.00;;;6.25;;
71975;SDS011;68326;52.124;5.424;2023-11-22T13:43:37;15.60;;;6.78;;
71975;SDS011;68326;52.124;5.424;2023-11-22T13:46:05;14.65;;;6.32;;
71975;SDS011;68326;52.124;5.424;2023-11-22T13:48:32;13.90;;;6.80;;
71975;SDS011;68326;52.124;5.424;2023-11-22T13:50:59;13.70;;;5.83;;
71975;SDS011;68326;52.124;5.424;2023-11-22T13:53:26;15.82;;;6.07;;
71975;SDS011;68326;52.124;5.424;2023-11-22T13:55:56;12.00;;;5.50;;
71975;SDS011;68326;52.124;5.424;2023-11-22T13:58:24;13.90;;;6.13;;
71975;SDS011;68326;52.124;5.424;2023-11-22T14:00:50;14.20;;;6.57;;
71975;SDS011;68326;52.124;5.424;2023-11-22T14:03:20;13.93;;;6.03;;
71975;SDS011;68326;52.124;5.424;2023-11-22T14:05:48;12.90;;;5.60;;
71975;SDS011;68326;52.124;5.424;2023-11-22T14:08:15;16.20;;;6.70;;
71975;SDS011;68326;52.124;5.424;2023-11-22T14:10:43;16.10;;;6.65;;
71975;SDS011;68326;52.124;5.424;2023-11-22T14:13:11;14.75;;;7.18;;
71975;SDS011;68326;52.124;5.424;2023-11-22T14:15:38;12.20;;;5.63;;
71975;SDS011;68326;52.124;5.424;2023-11-22T14:18:04;17.13;;;6.97;;
71975;SDS011;68326;52.124;5.424;2023-11-22T14:20:31;14.68;;;6.95;;
71975;SDS011;68326;52.124;5.424;2023-11-22T14:23:00;15.20;;;7.05;;
71975;SDS011;68326;52.124;5.424;2023-11-22T14:25:27;16.95;;;7.43;;
71975;SDS011;68326;52.124;5.424;2023-11-22T14:27:55;14.97;;;6.47;;
71975;SDS011;68326;52.124;5.424;2023-11-22T14:30:23;15.43;;;7.35;;
71975;SDS011;68326;52.124;5.424;2023-11-22T14:32:51;15.07;;;6.57;;
71975;SDS011;68326;52.124;5.424;2023-11-22T14:35:18;17.20;;;7.75;;
71975;SDS011;68326;52.124;5.424;2023-11-22T14:37:45;19.10;;;7.90;;
71975;SDS011;68326;52.124;5.424;2023-11-22T14:40:12;17.17;;;7.63;;
71975;SDS011;68326;52.124;5.424;2023-11-22T14:42:46;17.20;;;7.68;;
71975;SDS011;68326;52.124;5.424;2023-11-22T14:45:18;19.13;;;8.60;;
71975;SDS011;68326;52.124;5.424;2023-11-22T14:47:48;18.77;;;7.93;;
71975;SDS011;68326;52.124;5.424;2023-11-22T14:50:18;17.25;;;7.72;;
71975;SDS011;68326;52.124;5.424;2023-11-22T14:52:46;18.50;;;8.00;;
71975;SDS011;68326;52.124;5.424;2023-11-22T14:55:15;18.80;;;7.50;;
71975;SDS011;68326;52.124;5.424;2023-11-22T14:57:42;15.75;;;7.35;;